F\v Tenia — FPMH — position and weather

sailwx.info

Track history (hours):
 
Tides and Currents Weather Stations Pressure Air Temp Water Temp Dewpoint Dewpoint Depression Visibility Wind Speed Wind Dir Waves Ship Positions

F\v Tenia

Last reported at 2015-Aug-11 05:30 UTC. Time now 2015-Aug-29 09:24 UTC.
Position N 46°52' W 003°17'.
Warning: this ship's position is 18 days out of date.

Length 22 m; draft 4 m.

Type: Fishing. MMSI: 227575000.

Date/timePositionNaut miles runAvg speedWind from/ knotsBaromVisibWave heightAir tempDewpointWater temp
2015-Aug-11 05:30N 46°52' W 003°17'1 0.6
2015-Aug-11 04:19N 46°51' W 003°17'1 0.7
2015-Aug-11 03:28N 46°51' W 003°18'0 0.4
2015-Aug-11 02:33N 46°51' W 003°18'3 3.5
2015-Aug-11 01:33N 46°51' W 003°13'1 0.8
2015-Aug-11 00:34N 46°52' W 003°13'8 8.0
2015-Aug-10 23:34N 46°54' W 003°24'9 9.0
2015-Aug-10 22:33N 46°59' W 003°35'9 9.0
2015-Aug-10 21:34N 47°04' W 003°46'9 8.9
2015-Aug-10 20:33N 47°10' W 003°56'4 3.6
2015-Aug-10 19:33N 47°12' W 003°60'1 1.1
2015-Aug-10 18:34N 47°12' W 003°58'1 1.1
2015-Aug-10 17:33N 47°12' W 003°56'1 1.2
2015-Aug-10 16:33N 47°12' W 003°55'1 1.0
2015-Aug-10 15:33N 47°13' W 003°56'2 2.5
2015-Aug-10 14:33N 47°13' W 003°60'1 1.2
2015-Aug-10 13:34N 47°13' W 003°58'1 1.1
2015-Aug-10 12:33N 47°13' W 003°56'1 1.1
2015-Aug-10 11:33N 47°13' W 003°55'1 0.6
2015-Aug-10 10:33N 47°13' W 003°54'3 2.6
2015-Aug-10 09:31N 47°13' W 003°58'1 1.2
2015-Aug-10 08:33N 47°12' W 003°56'0 0.0
2015-Aug-10 07:33N 47°12' W 003°56'0 0.1
2015-Aug-10 03:14N 47°12' W 003°57'0 0.2
2015-Aug-10 02:24N 47°12' W 003°57'1 0.7
2015-Aug-10 01:29N 47°13' W 003°58'2 2.1
2015-Aug-10 00:31N 47°12' W 003°55'26 4.3
2015-Aug-09 18:29N 47°24' W 004°29'1 0.7
2015-Aug-09 17:32N 47°24' W 004°28'1 0.9
2015-Aug-09 16:33N 47°24' W 004°27'1 0.9
2015-Aug-09 15:33N 47°24' W 004°25'3 3.4
2015-Aug-09 14:33N 47°25' W 004°30'1 1.2
2015-Aug-09 13:32N 47°25' W 004°29'1 1.2
2015-Aug-09 12:33N 47°25' W 004°27'1 1.2
2015-Aug-09 11:33N 47°25' W 004°25'0 0.5
2015-Aug-09 10:33N 47°25' W 004°26'1 0.8
2015-Aug-09 09:30N 47°25' W 004°27'0 0.4
2015-Aug-09 08:33N 47°25' W 004°26'1 1.5
2015-Aug-09 07:33N 47°25' W 004°24'1 0.9
2015-Aug-09 06:33N 47°25' W 004°25'0 0.5
2015-Aug-09 05:30N 47°25' W 004°26'1 0.6
2015-Aug-09 04:16N 47°25' W 004°27'0 0.7
2015-Aug-09 03:33N 47°25' W 004°27'0 0.1
2015-Aug-09 01:26N 47°25' W 004°27'1 0.7
2015-Aug-09 00:20N 47°25' W 004°27'1 0.8
2015-Aug-08 23:33N 47°25' W 004°27'2 1.0
2015-Aug-08 21:11N 47°25' W 004°31'3 0.6
2015-Aug-08 16:05N 47°27' W 004°28'2 1.1
2015-Aug-08 14:32N 47°27' W 004°25'34 6.8
2015-Aug-08 09:30N 47°39' W 003°38'8 8.7
2015-Aug-08 08:33N 47°40' W 003°26'4 4.3
2015-Aug-08 07:33N 47°44' W 003°22'0 0.0
2015-Aug-08 06:33N 47°44' W 003°22'0 0.0
2015-Aug-08 05:34N 47°44' W 003°22'0 0.0
2015-Aug-08 04:34N 47°44' W 003°22'0 0.0
2015-Aug-08 03:34N 47°44' W 003°22'0 0.1
2015-Aug-08 02:34N 47°44' W 003°22'0 0.0
2015-Aug-08 01:34N 47°44' W 003°22'0 0.0
2015-Aug-08 00:34N 47°44' W 003°22'2 1.6
2015-Aug-07 23:34N 47°42' W 003°22'5 5.2
2015-Aug-07 22:33N 47°40' W 003°30'6 5.9
2015-Aug-07 21:33N 47°39' W 003°38'9 7.7
2015-Aug-07 20:26N 47°35' W 003°50'26 1.1
2015-Aug-06 19:33N 47°27' W 004°27'1 0.6
2015-Aug-06 18:31N 47°27' W 004°26'35 1.1
2015-Aug-05 11:33N 47°39' W 003°37'9 9.2
2015-Aug-05 10:34N 47°41' W 003°24'3 3.0
2015-Aug-05 09:33N 47°44' W 003°22'0 0.1
2015-Aug-05 08:34N 47°44' W 003°22'0 0.0
2015-Aug-05 07:34N 47°44' W 003°22'0 0.0
2015-Aug-05 06:33N 47°44' W 003°22'0 0.0
2015-Aug-05 05:34N 47°44' W 003°22'5 5.4
2015-Aug-05 04:34N 47°41' W 003°28'4 3.7
2015-Aug-05 03:34N 47°40' W 003°34'7 7.4
2015-Aug-05 02:34N 47°37' W 003°44'7 7.1
2015-Aug-05 01:33N 47°35' W 003°54'  
2015-Aug-02 21:29N 47°29' W 004°29'0 0.5
2015-Aug-02 20:32N 47°29' W 004°29'0 0.5
2015-Aug-02 19:33N 47°29' W 004°28'2 0.6
2015-Aug-02 17:05N 47°29' W 004°26'28 6.2
2015-Aug-02 12:33N 47°37' W 003°46'9 9.0
2015-Aug-02 11:33N 47°40' W 003°33'8 8.5
2015-Aug-02 10:33N 47°43' W 003°22'1 0.6
2015-Aug-02 09:33N 47°44' W 003°22'0 0.1
2015-Aug-02 08:33N 47°44' W 003°22'0 0.0
2015-Aug-02 07:33N 47°44' W 003°22'0 0.0
2015-Aug-02 06:33N 47°44' W 003°22'0 0.0
2015-Aug-02 05:34N 47°44' W 003°22'5 5.0
2015-Aug-02 04:34N 47°40' W 003°27'1 1.4
2015-Aug-02 03:34N 47°40' W 003°29'2 2.0
2015-Aug-02 02:33N 47°40' W 003°32'7 7.0
2015-Aug-02 01:33N 47°38' W 003°42'8 7.9
2015-Aug-02 00:34N 47°36' W 003°54'8 7.9
2015-Aug-01 23:34N 47°33' W 004°05'8 7.8
2015-Aug-01 22:34N 47°31' W 004°15'7 7.3
2015-Aug-01 21:33N 47°29' W 004°26'2 2.1
2015-Aug-01 20:33N 47°30' W 004°29'1 0.7
2015-Aug-01 19:33N 47°29' W 004°28'1 0.9
2015-Aug-01 18:34N 47°29' W 004°27'1 1.0
2015-Aug-01 17:28N 47°30' W 004°25'1 1.1
2015-Aug-01 16:33N 47°30' W 004°24'1 0.7
2015-Aug-01 15:33N 47°30' W 004°23'1 1.1
2015-Aug-01 14:32N 47°30' W 004°24'1 1.1
2015-Aug-01 13:34N 47°30' W 004°26'1 1.0
2015-Aug-01 12:31N 47°30' W 004°27'1 0.9
2015-Aug-01 11:09N 47°30' W 004°29'2 1.8
2015-Aug-01 10:09N 47°30' W 004°27'0 0.3
2015-Aug-01 09:33N 47°30' W 004°26'1 0.8
2015-Aug-01 08:34N 47°29' W 004°27'1 0.8
2015-Aug-01 07:30N 47°30' W 004°27'  
Track history (hours):
 
Tides and Currents Weather Stations Pressure Air Temp Water Temp Dewpoint Dewpoint Depression Visibility Wind Speed Wind Dir Waves Ship Positions

F\v Tenia

Last reported at 2015-Aug-11 05:30 UTC. Time now 2015-Aug-29 09:24 UTC.
Position N 46°52' W 003°17'.
Warning: this ship's position is 18 days out of date.

Length 22 m; draft 4 m.

Type: Fishing. MMSI: 227575000.

Date/timePositionNaut miles runAvg speedWind from/ knotsBaromVisibWave heightAir tempDewpointWater temp
2015-Aug-11 05:30N 46°52' W 003°17'1 0.6
2015-Aug-11 04:19N 46°51' W 003°17'1 0.7
2015-Aug-11 03:28N 46°51' W 003°18'0 0.4
2015-Aug-11 02:33N 46°51' W 003°18'3 3.5
2015-Aug-11 01:33N 46°51' W 003°13'1 0.8
2015-Aug-11 00:34N 46°52' W 003°13'8 8.0
2015-Aug-10 23:34N 46°54' W 003°24'9 9.0
2015-Aug-10 22:33N 46°59' W 003°35'9 9.0
2015-Aug-10 21:34N 47°04' W 003°46'9 8.9
2015-Aug-10 20:33N 47°10' W 003°56'4 3.6
2015-Aug-10 19:33N 47°12' W 003°60'1 1.1
2015-Aug-10 18:34N 47°12' W 003°58'1 1.1
2015-Aug-10 17:33N 47°12' W 003°56'1 1.2
2015-Aug-10 16:33N 47°12' W 003°55'1 1.0
2015-Aug-10 15:33N 47°13' W 003°56'2 2.5
2015-Aug-10 14:33N 47°13' W 003°60'1 1.2
2015-Aug-10 13:34N 47°13' W 003°58'1 1.1
2015-Aug-10 12:33N 47°13' W 003°56'1 1.1
2015-Aug-10 11:33N 47°13' W 003°55'1 0.6
2015-Aug-10 10:33N 47°13' W 003°54'3 2.6
2015-Aug-10 09:31N 47°13' W 003°58'1 1.2
2015-Aug-10 08:33N 47°12' W 003°56'0 0.0
2015-Aug-10 07:33N 47°12' W 003°56'0 0.1
2015-Aug-10 03:14N 47°12' W 003°57'0 0.2
2015-Aug-10 02:24N 47°12' W 003°57'1 0.7
2015-Aug-10 01:29N 47°13' W 003°58'2 2.1
2015-Aug-10 00:31N 47°12' W 003°55'26 4.3
2015-Aug-09 18:29N 47°24' W 004°29'1 0.7
2015-Aug-09 17:32N 47°24' W 004°28'1 0.9
2015-Aug-09 16:33N 47°24' W 004°27'1 0.9
2015-Aug-09 15:33N 47°24' W 004°25'3 3.4
2015-Aug-09 14:33N 47°25' W 004°30'1 1.2
2015-Aug-09 13:32N 47°25' W 004°29'1 1.2
2015-Aug-09 12:33N 47°25' W 004°27'1 1.2
2015-Aug-09 11:33N 47°25' W 004°25'0 0.5
2015-Aug-09 10:33N 47°25' W 004°26'1 0.8
2015-Aug-09 09:30N 47°25' W 004°27'0 0.4
2015-Aug-09 08:33N 47°25' W 004°26'1 1.5
2015-Aug-09 07:33N 47°25' W 004°24'1 0.9
2015-Aug-09 06:33N 47°25' W 004°25'0 0.5
2015-Aug-09 05:30N 47°25' W 004°26'1 0.6
2015-Aug-09 04:16N 47°25' W 004°27'0 0.7
2015-Aug-09 03:33N 47°25' W 004°27'0 0.1
2015-Aug-09 01:26N 47°25' W 004°27'1 0.7
2015-Aug-09 00:20N 47°25' W 004°27'1 0.8
2015-Aug-08 23:33N 47°25' W 004°27'2 1.0
2015-Aug-08 21:11N 47°25' W 004°31'3 0.6
2015-Aug-08 16:05N 47°27' W 004°28'2 1.1
2015-Aug-08 14:32N 47°27' W 004°25'34 6.8
2015-Aug-08 09:30N 47°39' W 003°38'8 8.7
2015-Aug-08 08:33N 47°40' W 003°26'4 4.3
2015-Aug-08 07:33N 47°44' W 003°22'0 0.0
2015-Aug-08 06:33N 47°44' W 003°22'0 0.0
2015-Aug-08 05:34N 47°44' W 003°22'0 0.0
2015-Aug-08 04:34N 47°44' W 003°22'0 0.0
2015-Aug-08 03:34N 47°44' W 003°22'0 0.1
2015-Aug-08 02:34N 47°44' W 003°22'0 0.0
2015-Aug-08 01:34N 47°44' W 003°22'0 0.0
2015-Aug-08 00:34N 47°44' W 003°22'2 1.6
2015-Aug-07 23:34N 47°42' W 003°22'5 5.2
2015-Aug-07 22:33N 47°40' W 003°30'6 5.9
2015-Aug-07 21:33N 47°39' W 003°38'9 7.7
2015-Aug-07 20:26N 47°35' W 003°50'26 1.1
2015-Aug-06 19:33N 47°27' W 004°27'1 0.6
2015-Aug-06 18:31N 47°27' W 004°26'35 1.1
2015-Aug-05 11:33N 47°39' W 003°37'9 9.2
2015-Aug-05 10:34N 47°41' W 003°24'3 3.0
2015-Aug-05 09:33N 47°44' W 003°22'0 0.1
2015-Aug-05 08:34N 47°44' W 003°22'0 0.0
2015-Aug-05 07:34N 47°44' W 003°22'0 0.0
2015-Aug-05 06:33N 47°44' W 003°22'0 0.0
2015-Aug-05 05:34N 47°44' W 003°22'5 5.4
2015-Aug-05 04:34N 47°41' W 003°28'4 3.7
2015-Aug-05 03:34N 47°40' W 003°34'7 7.4
2015-Aug-05 02:34N 47°37' W 003°44'7 7.1
2015-Aug-05 01:33N 47°35' W 003°54'  
2015-Aug-02 21:29N 47°29' W 004°29'0 0.5
2015-Aug-02 20:32N 47°29' W 004°29'0 0.5
2015-Aug-02 19:33N 47°29' W 004°28'2 0.6
2015-Aug-02 17:05N 47°29' W 004°26'28 6.2
2015-Aug-02 12:33N 47°37' W 003°46'9 9.0
2015-Aug-02 11:33N 47°40' W 003°33'8 8.5
2015-Aug-02 10:33N 47°43' W 003°22'1 0.6
2015-Aug-02 09:33N 47°44' W 003°22'0 0.1
2015-Aug-02 08:33N 47°44' W 003°22'0 0.0
2015-Aug-02 07:33N 47°44' W 003°22'0 0.0
2015-Aug-02 06:33N 47°44' W 003°22'0 0.0
2015-Aug-02 05:34N 47°44' W 003°22'5 5.0
2015-Aug-02 04:34N 47°40' W 003°27'1 1.4
2015-Aug-02 03:34N 47°40' W 003°29'2 2.0
2015-Aug-02 02:33N 47°40' W 003°32'7 7.0
2015-Aug-02 01:33N 47°38' W 003°42'8 7.9
2015-Aug-02 00:34N 47°36' W 003°54'8 7.9
2015-Aug-01 23:34N 47°33' W 004°05'8 7.8
2015-Aug-01 22:34N 47°31' W 004°15'7 7.3
2015-Aug-01 21:33N 47°29' W 004°26'2 2.1
2015-Aug-01 20:33N 47°30' W 004°29'1 0.7
2015-Aug-01 19:33N 47°29' W 004°28'1 0.9
2015-Aug-01 18:34N 47°29' W 004°27'1 1.0
2015-Aug-01 17:28N 47°30' W 004°25'1 1.1
2015-Aug-01 16:33N 47°30' W 004°24'1 0.7
2015-Aug-01 15:33N 47°30' W 004°23'1 1.1
2015-Aug-01 14:32N 47°30' W 004°24'1 1.1
2015-Aug-01 13:34N 47°30' W 004°26'1 1.0
2015-Aug-01 12:31N 47°30' W 004°27'1 0.9
2015-Aug-01 11:09N 47°30' W 004°29'2 1.8
2015-Aug-01 10:09N 47°30' W 004°27'0 0.3
2015-Aug-01 09:33N 47°30' W 004°26'1 0.8
2015-Aug-01 08:34N 47°29' W 004°27'1 0.8
2015-Aug-01 07:30N 47°30' W 004°27'  

Dump ship's entire track history